Time;durP1;ratioP1;P1;durP2;ratioP2;P2;SDS_P1;SDS_P2;PMS_P1;PMS_P2;Temp;Humidity;BMP_temperature;BMP_pressure;BME280_temperature;BME280_humidity;BME280_pressure;Samples;Min_cycle;Max_cycle;Signal;HPM_P1;HPM_P2
2024/01/29 00:02:26;;;;;;;8.50;2.45;;;;;;;-141.50;100.00;63355.56;4953788;28;20110;-83
2024/01/29 00:05:09;;;;;;;;;;;;;;;-141.50;100.00;63355.56;4969778;28;20066;-84
2024/01/29 00:07:43;;;;;;;8.60;2.72;;;;;;;-141.50;100.00;63355.56;4975513;28;19922;-85
2024/01/29 00:10:16;;;;;;;6.85;2.40;;;;;;;-141.50;100.00;63355.56;4946717;28;20049;-83
2024/01/29 00:13:12;;;;;;;9.50;2.90;;;;;;;-141.50;100.00;63355.56;4975956;28;20066;-84
2024/01/29 00:15:53;;;;;;;6.40;2.22;;;;;;;-141.50;100.00;63355.56;4919505;28;20042;-82
2024/01/29 00:18:50;;;;;;;8.52;2.17;;;;;;;-141.50;100.00;63355.56;4946425;28;20077;-83
2024/01/29 00:21:47;;;;;;;;;;;;;;;;;;;;;
2024/01/29 00:24:39;;;;;;;8.07;2.30;;;;;;;-141.50;100.00;63355.56;4977933;28;20054;-83
2024/01/29 00:27:35;;;;;;;7.55;2.53;;;;;;;-141.50;100.00;63355.56;4994679;28;20034;-84
2024/01/29 00:30:20;;;;;;;6.80;2.50;;;;;;;-141.50;100.00;63355.56;4970786;28;20085;-83
2024/01/29 00:33:00;;;;;;;8.85;3.08;;;;;;;-141.50;100.00;63355.56;4990251;28;20254;-83
2024/01/29 00:35:45;;;;;;;7.15;2.60;;;;;;;-141.50;100.00;63355.56;4987241;28;20057;-83
2024/01/29 00:38:38;;;;;;;6.53;2.10;;;;;;;-141.50;100.00;63355.56;4970080;28;20118;-83
2024/01/29 00:41:48;;;;;;;8.60;2.85;;;;;;;-141.50;100.00;63355.56;4944178;28;20235;-82
2024/01/29 00:44:21;;;;;;;7.20;2.70;;;;;;;-141.50;100.00;63355.56;4951440;28;20054;-82
2024/01/29 00:47:05;;;;;;;5.53;2.08;;;;;;;-141.50;100.00;63355.56;4940713;28;20145;-83
2024/01/29 00:49:49;;;;;;;6.40;2.67;;;;;;;-141.50;100.00;63355.56;4977521;28;20057;-83
2024/01/29 00:52:56;;;;;;;9.15;2.58;;;;;;;-141.50;100.00;63355.56;4979177;28;20062;-84
2024/01/29 00:55:42;;;;;;;7.25;2.50;;;;;;;-141.50;100.00;63355.56;4980017;28;20060;-83
2024/01/29 00:58:45;;;;;;;7.00;2.30;;;;;;;-141.50;100.00;63355.56;4966407;28;20058;-82
2024/01/29 01:01:24;;;;;;;9.50;2.25;;;;;;;-141.50;100.00;63355.56;4961946;28;20058;-83
2024/01/29 01:03:53;;;;;;;8.15;2.70;;;;;;;-141.50;100.00;63355.56;4999343;28;20046;-85
2024/01/29 01:06:48;;;;;;;9.77;3.07;;;;;;;-141.50;100.00;63355.56;4989121;28;20066;-83
2024/01/29 01:09:48;;;;;;;8.57;2.97;;;;;;;-141.50;100.00;63355.56;4935323;28;20537;-84
2024/01/29 01:12:17;;;;;;;31.10;8.43;;;;;;;-141.50;100.00;63355.56;4968083;28;20082;-84
2024/01/29 01:14:44;;;;;;;42.53;11.25;;;;;;;-141.50;100.00;63355.56;4981092;28;20046;-83
2024/01/29 01:17:16;;;;;;;31.08;8.50;;;;;;;-141.50;100.00;63355.56;4998070;28;20057;-84
2024/01/29 01:19:43;;;;;;;41.55;10.68;;;;;;;-141.50;100.00;63355.56;4994981;28;20530;-82
2024/01/29 01:22:14;;;;;;;32.95;9.07;;;;;;;-141.50;100.00;63355.56;4982315;28;20098;-82
2024/01/29 01:24:41;;;;;;;25.75;7.43;;;;;;;-141.50;100.00;63355.56;4961319;28;20043;-82
2024/01/29 01:27:09;;;;;;;26.30;7.05;;;;;;;-141.50;100.00;63355.56;5007777;28;20061;-86
2024/01/29 01:29:39;;;;;;;21.40;5.95;;;;;;;-141.50;100.00;63355.56;4996202;28;20038;-83
2024/01/29 01:32:05;;;;;;;21.95;5.95;;;;;;;-141.50;100.00;63355.56;5011179;28;20517;-82
2024/01/29 01:34:32;;;;;;;18.25;5.97;;;;;;;-141.50;100.00;63355.56;4974053;28;20045;-83
2024/01/29 01:37:00;;;;;;;19.05;5.75;;;;;;;-141.50;100.00;63355.56;5019529;28;20066;-83
2024/01/29 01:39:27;;;;;;;16.42;4.60;;;;;;;-141.50;100.00;63355.56;5016618;28;20505;-83
2024/01/29 01:41:55;;;;;;;14.43;4.57;;;;;;;-141.50;100.00;63355.56;5011736;28;20100;-83
2024/01/29 01:44:22;;;;;;;14.63;4.35;;;;;;;-141.50;100.00;63355.56;5008254;28;20141;-83
2024/01/29 01:46:49;;;;;;;12.55;3.88;;;;;;;-141.50;100.00;63355.56;4999767;28;20049;-83
2024/01/29 01:49:16;;;;;;;16.50;3.95;;;;;;;-141.50;100.00;63355.56;5024347;28;20141;-83
2024/01/29 01:51:44;;;;;;;14.05;3.58;;;;;;;-141.50;100.00;63355.56;5014419;28;20069;-83
2024/01/29 01:54:15;;;;;;;10.77;3.20;;;;;;;-141.50;100.00;63355.56;5013763;28;20061;-83
2024/01/29 01:56:48;;;;;;;12.95;2.72;;;;;;;-141.50;100.00;63355.56;5015486;28;20596;-83
2024/01/29 01:59:23;;;;;;;7.43;2.47;;;;;;;-141.50;100.00;63355.56;4987968;28;20135;-85
2024/01/29 02:02:01;;;;;;;6.85;2.60;;;;;;;-141.50;100.00;63355.56;4984268;28;20030;-81
2024/01/29 02:04:32;;;;;;;7.45;2.40;;;;;;;-141.50;100.00;63355.56;4938564;28;20105;-82
2024/01/29 02:07:11;;;;;;;8.63;2.40;;;;;;;-141.50;100.00;63355.56;4941158;28;20073;-83
2024/01/29 02:09:52;;;;;;;8.13;2.50;;;;;;;-141.50;100.00;63355.56;5018094;28;20049;-82
2024/01/29 02:12:27;;;;;;;6.88;2.20;;;;;;;-141.50;100.00;63355.56;5029368;28;20060;-84
2024/01/29 02:14:54;;;;;;;5.95;2.30;;;;;;;-141.50;100.00;63355.56;4993905;28;20073;-82
2024/01/29 02:17:26;;;;;;;7.20;2.70;;;;;;;-141.50;100.00;63355.56;5002664;28;20054;-82
2024/01/29 02:20:01;;;;;;;5.85;2.40;;;;;;;-141.50;100.00;63355.56;4975936;28;20060;-82
2024/01/29 02:22:31;;;;;;;8.68;2.75;;;;;;;-141.50;100.00;63355.56;5003463;28;20076;-81
2024/01/29 02:25:02;;;;;;;5.40;1.95;;;;;;;-141.50;100.00;63355.56;4971294;28;20105;-81
2024/01/29 02:27:48;;;;;;;11.80;2.13;;;;;;;-141.50;100.00;63355.56;5003065;28;20037;-84
2024/01/29 02:30:21;;;;;;;6.38;1.70;;;;;;;-141.50;100.00;63355.56;5008679;28;20062;-83
2024/01/29 02:32:51;;;;;;;5.28;1.65;;;;;;;-141.50;100.00;63355.56;4994736;28;20049;-83
2024/01/29 02:35:19;;;;;;;9.10;2.22;;;;;;;-141.50;100.00;63355.56;4994682;28;20055;-81
2024/01/29 02:38:22;;;;;;;4.43;2.00;;;;;;;-141.50;100.00;63355.56;5012438;28;20050;-83
2024/01/29 02:41:16;;;;;;;8.75;2.00;;;;;;;-141.50;100.00;63355.56;4980917;28;20589;-84
2024/01/29 02:44:00;;;;;;;7.82;1.55;;;;;;;-141.50;100.00;63355.56;4994035;28;20041;-84
2024/01/29 02:46:43;;;;;;;6.95;2.03;;;;;;;-141.50;100.00;63355.56;5012367;28;20437;-84
2024/01/29 02:49:18;;;;;;;6.00;2.03;;;;;;;-141.50;100.00;63355.56;5004245;28;20243;-82
2024/01/29 02:51:45;;;;;;;6.93;2.10;;;;;;;-141.50;100.00;63355.56;5011972;28;20046;-83
2024/01/29 02:54:33;;;;;;;7.68;1.90;;;;;;;-141.50;100.00;63355.56;4987704;28;20062;-83
2024/01/29 02:57:07;;;;;;;3.60;1.70;;;;;;;-141.50;100.00;63355.56;4964456;28;20109;-82
2024/01/29 02:59:35;;;;;;;3.72;1.90;;;;;;;-141.50;100.00;63355.56;5020997;28;20041;-82
2024/01/29 03:02:06;;;;;;;8.48;1.80;;;;;;;-141.50;100.00;63355.56;5006191;28;20136;-82
2024/01/29 03:04:47;;;;;;;7.05;2.30;;;;;;;-141.50;100.00;63355.56;5016202;28;20049;-81
2024/01/29 03:07:20;;;;;;;7.65;2.25;;;;;;;-141.50;100.00;63355.56;5009737;28;20045;-83
2024/01/29 03:09:48;;;;;;;8.50;2.30;;;;;;;-141.50;100.00;63355.56;4984609;28;20645;-82
2024/01/29 03:12:19;;;;;;;9.32;2.60;;;;;;;-141.50;100.00;63355.56;4966536;28;20085;-83
2024/01/29 03:14:57;;;;;;;9.30;2.50;;;;;;;-141.50;100.00;63355.56;5001028;28;20046;-83
2024/01/29 03:17:33;;;;;;;7.80;2.42;;;;;;;-141.50;100.00;63355.56;5008700;28;20086;-83
2024/01/29 03:20:10;;;;;;;5.90;2.30;;;;;;;-141.50;100.00;63355.56;5009994;28;20414;-83
2024/01/29 03:22:49;;;;;;;6.18;2.20;;;;;;;-141.50;100.00;63355.56;5014972;28;20392;-83
2024/01/29 03:25:20;;;;;;;7.13;1.90;;;;;;;-141.50;100.00;63355.56;5017380;28;20095;-83
2024/01/29 03:27:54;;;;;;;8.52;2.50;;;;;;;-141.50;100.00;63355.56;4992503;28;20083;-84
2024/01/29 03:30:21;;;;;;;9.05;2.10;;;;;;;-141.50;100.00;63355.56;5010422;28;20055;-84
2024/01/29 03:32:49;;;;;;;6.88;2.40;;;;;;;-141.50;100.00;63355.56;5015401;28;20041;-83
2024/01/29 03:35:17;;;;;;;8.88;2.63;;;;;;;-141.50;100.00;63355.56;5018190;28;20122;-84
2024/01/29 03:37:44;;;;;;;8.02;2.60;;;;;;;-141.50;100.00;63355.56;5009453;28;20049;-83
2024/01/29 03:40:12;;;;;;;7.28;2.17;;;;;;;-141.50;100.00;63355.56;5020799;28;20120;-82
2024/01/29 03:42:42;;;;;;;6.40;2.13;;;;;;;-141.50;100.00;63355.56;5016425;28;20056;-83
2024/01/29 03:45:09;;;;;;;7.90;2.33;;;;;;;-141.50;100.00;63355.56;5016016;28;20511;-82
2024/01/29 03:47:39;;;;;;;5.47;2.10;;;;;;;-141.50;100.00;63355.56;5005204;28;20759;-83
2024/01/29 03:50:06;;;;;;;6.22;2.25;;;;;;;-141.50;100.00;63355.56;4990497;28;20057;-83
2024/01/29 03:52:39;;;;;;;5.75;2.22;;;;;;;-141.50;100.00;63355.56;5018435;28;20033;-82
2024/01/29 03:55:06;;;;;;;8.95;2.67;;;;;;;-141.50;100.00;63355.56;5025471;28;20567;-84
2024/01/29 03:57:33;;;;;;;8.48;2.25;;;;;;;-141.50;100.00;63355.56;5012433;28;20048;-82
2024/01/29 04:00:00;;;;;;;5.57;2.10;;;;;;;-141.50;100.00;63355.56;5011212;28;20048;-80
2024/01/29 04:02:37;;;;;;;5.15;2.00;;;;;;;-141.50;100.00;63355.56;5028473;28;20064;-82
2024/01/29 04:05:04;;;;;;;3.80;1.75;;;;;;;-141.50;100.00;63355.56;5023626;28;20064;-81
2024/01/29 04:07:31;;;;;;;8.27;2.50;;;;;;;-141.50;100.00;63355.56;5004149;28;20041;-81
2024/01/29 04:09:59;;;;;;;6.30;2.15;;;;;;;-141.50;100.00;63355.56;5025533;28;20141;-82
2024/01/29 04:12:26;;;;;;;7.10;2.40;;;;;;;-141.50;100.00;63355.56;5007729;28;20224;-83
2024/01/29 04:14:53;;;;;;;10.02;2.95;;;;;;;-141.50;100.00;63355.56;5029137;28;20073;-82
2024/01/29 04:17:22;;;;;;;7.57;2.40;;;;;;;-141.50;100.00;63355.56;5029016;28;20053;-82
2024/01/29 04:19:49;;;;;;;2.03;1.10;;;;;;;-141.50;100.00;63355.56;5007406;28;20054;-82
2024/01/29 04:22:16;;;;;;;3.72;1.10;;;;;;;-141.50;100.00;63355.56;4981155;28;20062;-82
2024/01/29 04:24:43;;;;;;;4.20;1.10;;;;;;;-141.50;100.00;63355.56;5000298;28;20080;-82
2024/01/29 04:27:10;;;;;;;2.90;1.17;;;;;;;-141.50;100.00;63355.56;5019829;28;20083;-83
2024/01/29 04:29:38;;;;;;;2.63;0.93;;;;;;;-141.50;100.00;63355.56;5029023;28;20051;-84
2024/01/29 04:32:05;;;;;;;2.75;0.95;;;;;;;-141.50;100.00;63355.56;5024185;28;20431;-81
2024/01/29 04:34:34;;;;;;;4.90;1.45;;;;;;;-141.50;100.00;63355.56;4981224;28;20056;-82
2024/01/29 04:37:05;;;;;;;3.78;1.20;;;;;;;-141.50;100.00;63355.56;5007233;28;20115;-82
2024/01/29 04:39:43;;;;;;;3.83;1.42;;;;;;;-141.50;100.00;63355.56;4994556;28;21618;-82
2024/01/29 04:42:10;;;;;;;5.80;1.80;;;;;;;-141.50;100.00;63355.56;5019283;28;20265;-82
2024/01/29 04:44:37;;;;;;;5.63;1.40;;;;;;;-141.50;100.00;63355.56;5025991;28;20822;-82
2024/01/29 04:47:05;;;;;;;3.33;1.35;;;;;;;-141.50;100.00;63355.56;5022374;28;20640;-82
2024/01/29 04:49:32;;;;;;;3.88;1.52;;;;;;;-141.50;100.00;63355.56;5018215;28;20052;-83
2024/01/29 04:52:03;;;;;;;8.27;2.10;;;;;;;-141.50;100.00;63355.56;5002050;28;20081;-82
2024/01/29 04:54:34;;;;;;;4.47;1.65;;;;;;;-141.50;100.00;63355.56;5016196;28;20045;-82
2024/01/29 04:57:06;;;;;;;4.68;1.48;;;;;;;-141.50;100.00;63355.56;5008841;28;20057;-84
2024/01/29 04:59:35;;;;;;;2.90;1.58;;;;;;;-141.50;100.00;63355.56;5003144;28;20065;-83
2024/01/29 05:02:09;;;;;;;4.20;1.40;;;;;;;-141.50;100.00;63355.56;4998001;28;20054;-83
2024/01/29 05:04:43;;;;;;;3.95;1.30;;;;;;;-141.50;100.00;63355.56;5004539;28;20066;-82
2024/01/29 05:07:10;;;;;;;3.85;1.08;;;;;;;-141.50;100.00;63355.56;5008731;28;20065;-82
2024/01/29 05:09:41;;;;;;;1.98;0.80;;;;;;;-141.50;100.00;63355.56;5023185;28;20041;-83
2024/01/29 05:12:39;;;;;;;3.72;0.93;;;;;;;-141.50;100.00;63355.56;5009683;28;20079;-83
2024/01/29 05:15:12;;;;;;;2.47;1.00;;;;;;;-141.50;100.00;63355.56;5015129;28;20049;-83
2024/01/29 05:17:42;;;;;;;2.60;1.08;;;;;;;-141.50;100.00;63355.56;5023650;28;20064;-83
2024/01/29 05:20:10;;;;;;;2.45;0.82;;;;;;;-141.50;100.00;63355.56;5020247;28;20050;-83
2024/01/29 05:22:37;;;;;;;8.20;1.05;;;;;;;-141.50;100.00;63355.56;5000517;28;20067;-83
2024/01/29 05:25:07;;;;;;;3.75;1.20;;;;;;;-141.50;100.00;63355.56;5002716;28;20064;-83
2024/01/29 05:27:34;;;;;;;2.63;1.15;;;;;;;-141.50;100.00;63355.56;5016694;28;20473;-84
2024/01/29 05:30:01;;;;;;;3.60;1.15;;;;;;;-141.50;100.00;63355.56;5016713;28;20053;-84
2024/01/29 05:32:28;;;;;;;4.43;1.88;;;;;;;-141.50;100.00;63355.56;5027050;28;20049;-81
2024/01/29 05:34:55;;;;;;;5.78;1.73;;;;;;;-141.50;100.00;63355.56;5035249;28;20072;-81
2024/01/29 05:37:22;;;;;;;7.05;2.58;;;;;;;-141.50;100.00;63355.56;5017071;28;20540;-80
2024/01/29 05:39:48;;;;;;;5.50;1.45;;;;;;;-141.50;100.00;63355.56;5013035;28;20058;-80
2024/01/29 05:42:18;;;;;;;6.57;1.60;;;;;;;-141.50;100.00;63355.56;4992977;28;20061;-79
2024/01/29 05:44:44;;;;;;;5.18;1.50;;;;;;;-141.50;100.00;63355.56;5020572;28;20676;-81
2024/01/29 05:47:11;;;;;;;5.35;1.40;;;;;;;-141.50;100.00;63355.56;5030699;28;20131;-80
2024/01/29 05:49:38;;;;;;;4.45;1.30;;;;;;;-141.50;100.00;63355.56;5039577;28;20044;-80
2024/01/29 05:52:05;;;;;;;2.58;1.20;;;;;;;-141.50;100.00;63355.56;5028086;28;20539;-81
2024/01/29 05:54:31;;;;;;;5.70;1.20;;;;;;;-141.50;100.00;63355.56;5020173;28;20045;-82
2024/01/29 05:57:01;;;;;;;3.78;1.23;;;;;;;-141.50;100.00;63355.56;5014355;28;20671;-81
2024/01/29 05:59:28;;;;;;;5.03;1.73;;;;;;;-141.50;100.00;63355.56;5016280;28;20045;-82
2024/01/29 06:02:07;;;;;;;;;;;;;;;-141.50;100.00;63355.56;5012067;28;20057;-82
2024/01/29 06:04:34;;;;;;;6.53;1.95;;;;;;;-141.50;100.00;63355.56;4998010;28;20000;-82
2024/01/29 06:07:01;;;;;;;4.47;2.35;;;;;;;-141.50;100.00;63355.56;5010546;28;20078;-82
2024/01/29 06:09:28;;;;;;;8.48;1.90;;;;;;;-141.50;100.00;63355.56;5021530;28;20033;-84
2024/01/29 06:11:54;;;;;;;3.72;1.83;;;;;;;-141.50;100.00;63355.56;5016704;28;20057;-82
2024/01/29 06:14:21;;;;;;;3.92;1.75;;;;;;;-141.50;100.00;63355.56;5023066;28;20045;-81
2024/01/29 06:16:48;;;;;;;5.10;2.08;;;;;;;-141.50;100.00;63355.56;5028844;28;20046;-81
2024/01/29 06:19:17;;;;;;;6.35;1.70;;;;;;;-141.50;100.00;63355.56;5018087;28;20057;-81
2024/01/29 06:21:44;;;;;;;4.57;1.83;;;;;;;-141.50;100.00;63355.56;5006608;28;20063;-81
2024/01/29 06:24:12;;;;;;;7.22;2.10;;;;;;;-141.50;100.00;63355.56;5021940;28;20130;-79
2024/01/29 06:26:39;;;;;;;6.47;2.05;;;;;;;-141.50;100.00;63355.56;5026460;28;20053;-80
2024/01/29 06:29:07;;;;;;;5.60;2.05;;;;;;;-141.50;100.00;63355.56;5025649;28;20076;-80
2024/01/29 06:31:39;;;;;;;6.35;1.90;;;;;;;-141.50;100.00;63355.56;5029073;28;20100;-79
2024/01/29 06:34:06;;;;;;;4.72;1.77;;;;;;;-141.50;100.00;63355.56;5004500;28;20060;-81
2024/01/29 06:36:33;;;;;;;3.47;1.63;;;;;;;-141.50;100.00;63355.56;5014036;28;20067;-81
2024/01/29 06:39:00;;;;;;;6.53;1.98;;;;;;;-141.50;100.00;63355.56;5005421;28;20144;-81
2024/01/29 06:41:27;;;;;;;5.22;1.90;;;;;;;-141.50;100.00;63355.56;5005917;28;20077;-81
2024/01/29 06:43:55;;;;;;;4.63;1.50;;;;;;;-141.50;100.00;63355.56;5009609;28;20096;-81
2024/01/29 06:46:22;;;;;;;4.18;1.58;;;;;;;-141.50;100.00;63355.56;5011260;28;20057;-81
2024/01/29 06:48:49;;;;;;;4.90;1.63;;;;;;;-141.50;100.00;63355.56;5002915;28;20041;-82
2024/01/29 06:51:16;;;;;;;5.53;1.80;;;;;;;-141.50;100.00;63355.56;5017579;28;20092;-81
2024/01/29 06:53:44;;;;;;;5.95;2.35;;;;;;;-141.50;100.00;63355.56;5010244;28;20094;-80
2024/01/29 06:56:13;;;;;;;5.55;1.98;;;;;;;-141.50;100.00;63355.56;5000747;28;20434;-81
2024/01/29 06:58:41;;;;;;;5.65;2.25;;;;;;;-141.50;100.00;63355.56;5017077;28;20427;-81
2024/01/29 07:01:08;;;;;;;6.25;2.30;;;;;;;-141.50;100.00;63355.56;4982890;28;20062;-82
2024/01/29 07:03:35;;;;;;;6.43;2.10;;;;;;;-141.50;100.00;63355.56;4990721;28;20342;-82
2024/01/29 07:06:03;;;;;;;4.72;2.00;;;;;;;-141.50;100.00;63355.56;5005128;28;20057;-81
2024/01/29 07:08:32;;;;;;;5.18;1.98;;;;;;;-141.50;100.00;63355.56;5004026;28;20132;-82
2024/01/29 07:10:59;;;;;;;8.32;1.95;;;;;;;-141.50;100.00;63355.56;5010277;28;20278;-83
2024/01/29 07:13:28;;;;;;;4.22;1.67;;;;;;;-141.50;100.00;63355.56;4997433;28;20052;-83
2024/01/29 07:15:55;;;;;;;4.43;2.10;;;;;;;-141.50;100.00;63355.56;5024445;28;20045;-83
2024/01/29 07:18:22;;;;;;;5.93;2.20;;;;;;;-141.50;100.00;63355.56;5014445;28;20144;-82
2024/01/29 07:20:50;;;;;;;3.30;1.48;;;;;;;-141.50;100.00;63355.56;5012818;28;20100;-83
2024/01/29 07:23:17;;;;;;;4.97;1.98;;;;;;;-141.50;100.00;63355.56;4991832;28;20089;-83
2024/01/29 07:25:47;;;;;;;5.53;1.70;;;;;;;-141.50;100.00;63355.56;5003885;28;20053;-83
2024/01/29 07:28:14;;;;;;;4.25;2.03;;;;;;;-141.50;100.00;63355.56;5037618;28;20049;-83
2024/01/29 07:30:43;;;;;;;8.55;2.00;;;;;;;-141.50;100.00;63355.56;5015433;28;20046;-83
2024/01/29 07:33:14;;;;;;;8.98;1.90;;;;;;;-141.50;100.00;63355.56;5005374;28;20050;-82
2024/01/29 07:35:42;;;;;;;5.35;1.83;;;;;;;-141.50;100.00;63355.56;5017892;28;20037;-82
2024/01/29 07:38:09;;;;;;;4.72;1.40;;;;;;;-141.50;100.00;63355.56;4992306;28;20055;-81
2024/01/29 07:40:35;;;;;;;4.35;1.17;;;;;;;-141.50;100.00;63355.56;5013430;28;20111;-81
2024/01/29 07:43:02;;;;;;;3.75;0.95;;;;;;;-141.50;100.00;63355.56;4998709;28;20045;-81
2024/01/29 07:45:30;;;;;;;2.45;0.88;;;;;;;-141.50;100.00;63355.56;5010529;28;20045;-82
2024/01/29 07:47:59;;;;;;;2.55;1.08;;;;;;;-141.50;100.00;63355.56;5015090;28;20527;-82
2024/01/29 07:50:26;;;;;;;6.10;1.60;;;;;;;-141.50;100.00;63355.56;4983850;28;20087;-82
2024/01/29 07:52:54;;;;;;;3.53;1.50;;;;;;;-141.50;100.00;63355.56;4984854;28;20062;-83
2024/01/29 07:55:22;;;;;;;6.53;1.90;;;;;;;-141.50;100.00;63355.56;4978495;28;20057;-82
2024/01/29 07:57:52;;;;;;;6.15;1.88;;;;;;;-141.50;100.00;63355.56;5001827;28;20073;-83
2024/01/29 08:00:20;;;;;;;10.43;2.70;;;;;;;-141.50;100.00;63355.56;5008207;28;20053;-83
2024/01/29 08:02:48;;;;;;;7.63;1.83;;;;;;;-141.50;100.00;63355.56;5049983;28;20597;-82
2024/01/29 08:05:15;;;;;;;6.57;1.77;;;;;;;-141.50;100.00;63355.56;5011204;28;20057;-82
2024/01/29 08:07:42;;;;;;;4.78;1.92;;;;;;;-141.50;100.00;63355.56;5021702;28;20049;-83
2024/01/29 08:10:10;;;;;;;5.43;2.00;;;;;;;-141.50;100.00;63355.56;4996390;28;20323;-83
2024/01/29 08:12:37;;;;;;;4.53;1.65;;;;;;;-141.50;100.00;63355.56;5007977;28;20057;-82
2024/01/29 08:15:06;;;;;;;7.15;2.03;;;;;;;-141.50;100.00;63355.56;5014403;28;20111;-82
2024/01/29 08:17:33;;;;;;;75.60;17.23;;;;;;;-141.50;100.00;63355.56;5010704;28;20049;-82
2024/01/29 08:20:00;;;;;;;104.55;24.38;;;;;;;-141.50;100.00;63355.56;5006250;28;20155;-82
2024/01/29 08:22:29;;;;;;;115.07;26.48;;;;;;;-141.50;100.00;63355.56;5014210;28;20049;-83
2024/01/29 08:24:56;;;;;;;94.55;24.30;;;;;;;-141.50;100.00;63355.56;4985023;28;20533;-83
2024/01/29 08:27:23;;;;;;;89.88;22.15;;;;;;;-141.50;100.00;63355.56;4997489;28;20068;-82
2024/01/29 08:29:58;;;;;;;79.75;17.60;;;;;;;-141.50;100.00;63355.56;4997158;28;20305;-84
2024/01/29 08:32:25;;;;;;;115.78;24.20;;;;;;;-141.50;100.00;63355.56;5010749;28;20221;-83
2024/01/29 08:34:55;;;;;;;130.88;27.48;;;;;;;-141.50;100.00;63355.56;5002795;28;20049;-83
2024/01/29 08:37:22;;;;;;;112.05;24.15;;;;;;;-141.50;100.00;63355.56;5005249;28;20079;-83
2024/01/29 08:39:49;;;;;;;97.65;22.02;;;;;;;-141.50;100.00;63355.56;5014584;28;20082;-84
2024/01/29 08:42:15;;;;;;;43.88;11.55;;;;;;;-141.50;100.00;63355.56;4993014;28;20221;-83
2024/01/29 08:44:43;;;;;;;21.70;5.53;;;;;;;-141.50;100.00;63355.56;5031436;28;20548;-83
2024/01/29 08:47:15;;;;;;;8.85;3.00;;;;;;;-141.50;100.00;63355.56;5022636;28;20061;-83
2024/01/29 08:49:42;;;;;;;5.97;2.28;;;;;;;-141.50;100.00;63355.56;5013581;28;20049;-83
2024/01/29 08:52:09;;;;;;;7.05;2.35;;;;;;;-141.50;100.00;63355.56;4984974;28;20053;-83
2024/01/29 08:54:36;;;;;;;8.52;2.47;;;;;;;-141.50;100.00;63355.56;4998233;28;20053;-83
2024/01/29 08:57:03;;;;;;;8.65;3.55;;;;;;;-141.50;100.00;63355.56;5027625;28;20079;-84
2024/01/29 08:59:31;;;;;;;13.20;4.78;;;;;;;-141.50;100.00;63355.56;5036352;28;20495;-84
2024/01/29 09:01:58;;;;;;;13.65;5.65;;;;;;;-141.50;100.00;63355.56;5016536;28;20477;-84
2024/01/29 09:04:25;;;;;;;9.40;3.67;;;;;;;-141.50;100.00;63355.56;5006830;28;22276;-84
2024/01/29 09:06:58;;;;;;;15.18;3.75;;;;;;;-141.50;100.00;63355.56;5015590;28;20064;-84
2024/01/29 09:09:25;;;;;;;14.68;5.45;;;;;;;-141.50;100.00;63355.56;5021933;28;20041;-82
2024/01/29 09:11:52;;;;;;;20.77;7.30;;;;;;;-141.50;100.00;63355.56;5005911;28;20037;-81
2024/01/29 09:14:20;;;;;;;21.20;6.30;;;;;;;-141.50;100.00;63355.56;5004258;28;20053;-81
2024/01/29 09:16:47;;;;;;;18.08;6.63;;;;;;;-141.50;100.00;63355.56;5010261;28;20488;-81
2024/01/29 09:19:16;;;;;;;19.80;6.65;;;;;;;-141.50;100.00;63355.56;5006535;28;20049;-81
2024/01/29 09:21:49;;;;;;;23.00;8.10;;;;;;;-141.50;100.00;63355.56;5022006;28;20053;-81
2024/01/29 09:24:21;;;;;;;33.85;11.30;;;;;;;-141.50;100.00;63355.56;5013179;28;20056;-83
2024/01/29 09:26:48;;;;;;;28.67;8.77;;;;;;;-141.50;100.00;63355.56;5023790;28;20058;-82
2024/01/29 09:29:15;;;;;;;12.25;4.22;;;;;;;-141.50;100.00;63355.56;4982124;28;20060;-82
2024/01/29 09:31:45;;;;;;;12.40;4.50;;;;;;;-141.50;100.00;63355.56;5012528;28;20049;-82
2024/01/29 09:34:12;;;;;;;9.70;2.97;;;;;;;-141.50;100.00;63355.56;5020611;28;20451;-83
2024/01/29 09:36:39;;;;;;;8.93;2.50;;;;;;;-141.50;100.00;63355.56;5021767;28;20084;-82
2024/01/29 09:39:07;;;;;;;4.32;2.28;;;;;;;-141.50;100.00;63355.56;5033634;28;20148;-83
2024/01/29 09:41:34;;;;;;;6.20;2.25;;;;;;;-141.50;100.00;63355.56;5022900;28;20064;-83
2024/01/29 09:44:06;;;;;;;10.57;2.63;;;;;;;-141.50;100.00;63355.56;5005595;28;20266;-83
2024/01/29 09:46:37;;;;;;;7.20;2.50;;;;;;;-141.50;100.00;63355.56;5039392;28;20053;-83
2024/01/29 09:49:05;;;;;;;7.97;3.03;;;;;;;-141.50;100.00;63355.56;5030330;28;20664;-82
2024/01/29 09:51:33;;;;;;;7.95;2.90;;;;;;;-141.50;100.00;63355.56;5017315;28;20061;-82
2024/01/29 09:54:02;;;;;;;8.18;3.10;;;;;;;-141.50;100.00;63355.56;5040859;28;20061;-82
2024/01/29 09:56:29;;;;;;;7.05;2.95;;;;;;;-141.50;100.00;63355.56;5021740;28;20072;-82
2024/01/29 09:58:56;;;;;;;6.05;2.75;;;;;;;-141.50;100.00;63355.56;5030731;28;20399;-82
2024/01/29 10:01:23;;;;;;;8.45;2.63;;;;;;;-141.50;100.00;63355.56;5027963;28;20049;-83
2024/01/29 10:03:50;;;;;;;7.43;2.75;;;;;;;-141.50;100.00;63355.56;5009788;28;20089;-83
2024/01/29 10:06:18;;;;;;;5.55;2.13;;;;;;;-141.50;100.00;63355.56;5008860;28;20061;-82
2024/01/29 10:08:46;;;;;;;5.65;2.10;;;;;;;-141.50;100.00;63355.56;5008717;28;20056;-83
2024/01/29 10:11:16;;;;;;;11.27;2.80;;;;;;;-141.50;100.00;63355.56;5003878;28;20068;-82
2024/01/29 10:13:47;;;;;;;6.85;2.20;;;;;;;-141.50;100.00;63355.56;5005558;28;20057;-82
2024/01/29 10:16:16;;;;;;;6.88;2.28;;;;;;;-141.50;100.00;63355.56;5009367;28;20443;-82
2024/01/29 10:18:43;;;;;;;5.30;1.90;;;;;;;-141.50;100.00;63355.56;5012266;28;20144;-83
2024/01/29 10:21:10;;;;;;;7.15;2.15;;;;;;;-141.50;100.00;63355.56;4986271;28;20057;-84
2024/01/29 10:23:37;;;;;;;6.32;2.10;;;;;;;-141.50;100.00;63355.56;4985738;28;20045;-83
2024/01/29 10:26:05;;;;;;;6.57;2.33;;;;;;;-141.50;100.00;63355.56;5014614;28;20057;-82
2024/01/29 10:28:33;;;;;;;5.47;2.05;;;;;;;-141.50;100.00;63355.56;5030965;28;20063;-83
2024/01/29 10:31:00;;;;;;;4.70;1.95;;;;;;;-141.50;100.00;63355.56;5028743;28;20546;-83
2024/01/29 10:33:26;;;;;;;5.85;1.98;;;;;;;-141.50;100.00;63355.56;5053888;28;20056;-84
2024/01/29 10:36:00;;;;;;;5.00;1.75;;;;;;;-141.50;100.00;63355.56;5028395;28;20056;-83
2024/01/29 10:38:28;;;;;;;5.43;2.10;;;;;;;-141.50;100.00;63355.56;5018594;28;20123;-84
2024/01/29 10:40:58;;;;;;;5.75;2.17;;;;;;;-141.50;100.00;63355.56;4981521;28;20062;-84
2024/01/29 10:43:36;;;;;;;6.40;2.10;;;;;;;-141.50;100.00;63355.56;5027337;28;20474;-83
2024/01/29 10:46:08;;;;;;;9.70;2.33;;;;;;;-141.50;100.00;63355.56;5019087;28;20058;-81
2024/01/29 10:48:36;;;;;;;6.07;2.38;;;;;;;-141.50;100.00;63355.56;5037509;28;20056;-84
2024/01/29 10:51:06;;;;;;;4.43;2.03;;;;;;;-141.50;100.00;63355.56;5021015;28;20700;-81
2024/01/29 10:53:33;;;;;;;4.35;1.60;;;;;;;-141.50;100.00;63355.56;5029562;28;20046;-84
2024/01/29 10:56:01;;;;;;;4.95;1.90;;;;;;;-141.50;100.00;63355.56;5019301;28;20065;-83
2024/01/29 10:58:28;;;;;;;5.50;2.30;;;;;;;-141.50;100.00;63355.56;5007040;28;20045;-82
2024/01/29 11:00:55;;;;;;;5.75;2.30;;;;;;;-141.50;100.00;63355.56;5034451;28;20049;-82
2024/01/29 11:03:25;;;;;;;4.82;1.95;;;;;;;-141.50;100.00;63355.56;5016487;28;20069;-81
2024/01/29 11:06:05;;;;;;;4.38;2.03;;;;;;;-141.50;100.00;63355.56;5013174;28;20052;-81
2024/01/29 11:08:35;;;;;;;4.15;1.50;;;;;;;-141.50;100.00;63355.56;5014198;28;20144;-81
2024/01/29 11:11:02;;;;;;;3.63;1.98;;;;;;;-141.50;100.00;63355.56;5026694;28;20060;-82
2024/01/29 11:13:33;;;;;;;6.03;1.30;;;;;;;-141.50;100.00;63355.56;5016251;28;20054;-81
2024/01/29 11:15:59;;;;;;;4.22;1.38;;;;;;;-141.50;100.00;63355.56;5021173;28;20559;-81
2024/01/29 11:18:34;;;;;;;2.50;1.50;;;;;;;-141.50;100.00;63355.56;5004841;28;20354;-82
2024/01/29 11:21:02;;;;;;;4.10;1.70;;;;;;;-141.50;100.00;63355.56;5001587;28;20065;-82
2024/01/29 11:23:29;;;;;;;4.25;1.73;;;;;;;-141.50;100.00;63355.56;5003719;28;20817;-83
2024/01/29 11:26:03;;;;;;;3.75;1.80;;;;;;;-141.50;100.00;63355.56;5019245;28;20408;-82
2024/01/29 11:28:32;;;;;;;2.38;1.13;;;;;;;-141.50;100.00;63355.56;5033971;28;20049;-82